Time;durP1;ratioP1;P1;durP2;ratioP2;P2;SDS_P1;SDS_P2;PMS_P1;PMS_P2;Temp;Humidity;BMP_temperature;BMP_pressure;BME280_temperature;BME280_humidity;BME280_pressure;Samples;Min_cycle;Max_cycle;Signal;HPM_P1;HPM_P2
2021/12/09 00:03:13;;;;;;;17.60;6.50;;;3.60;99.90;;;;;;10342933;28;20058;-62
2021/12/09 00:08:15;;;;;;;11.88;4.97;;;3.60;99.90;;;;;;10343709;28;20168;-63
2021/12/09 00:13:16;;;;;;;16.00;6.63;;;3.60;99.90;;;;;;10346752;28;20053;-62
2021/12/09 00:18:19;;;;;;;15.65;6.50;;;3.70;99.90;;;;;;10340665;28;20077;-63
2021/12/09 00:23:21;;;;;;;18.10;7.00;;;3.70;99.90;;;;;;10345881;28;20112;-62
2021/12/09 00:28:22;;;;;;;15.50;6.05;;;3.70;99.90;;;;;;10328947;28;20921;-61
2021/12/09 00:33:24;;;;;;;14.07;5.55;;;3.70;99.90;;;;;;10345860;28;20069;-62
2021/12/09 00:38:38;;;;;;;16.85;6.28;;;3.80;99.90;;;;;;10346869;28;20053;-61
2021/12/09 00:43:42;;;;;;;13.77;5.43;;;3.70;99.90;;;;;;10345996;28;20042;-64
2021/12/09 00:48:44;;;;;;;13.88;5.57;;;3.80;99.90;;;;;;10345163;28;20104;-64
2021/12/09 00:53:46;;;;;;;17.45;5.57;;;3.80;99.90;;;;;;10343645;28;20435;-64
2021/12/09 00:58:49;;;;;;;14.20;6.03;;;3.80;99.90;;;;;;10344972;28;20574;-65
2021/12/09 01:03:51;;;;;;;12.73;4.97;;;3.80;99.90;;;;;;10342318;28;20436;-64
2021/12/09 01:08:52;;;;;;;13.98;5.80;;;3.80;99.90;;;;;;10347162;28;20112;-65
2021/12/09 01:13:54;;;;;;;22.58;5.88;;;3.90;99.90;;;;;;10354958;28;20049;-62
2021/12/09 01:18:57;;;;;;;13.02;5.18;;;3.90;99.90;;;;;;10352597;28;20504;-62
2021/12/09 01:23:58;;;;;;;16.20;5.43;;;3.90;99.90;;;;;;10350902;28;20057;-62
2021/12/09 01:29:05;;;;;;;12.73;5.35;;;3.90;99.90;;;;;;10351595;28;20131;-62
2021/12/09 01:34:08;;;;;;;12.93;4.22;;;3.90;99.90;;;;;;10353757;28;20092;-63
2021/12/09 01:39:11;;;;;;;12.45;4.43;;;3.90;99.90;;;;;;10354575;28;20519;-62
2021/12/09 01:44:13;;;;;;;14.32;5.57;;;3.90;99.90;;;;;;10351321;28;20049;-62
2021/12/09 01:49:16;;;;;;;12.70;4.85;;;3.80;99.90;;;;;;10353626;28;20073;-62
2021/12/09 01:54:18;;;;;;;15.70;5.55;;;3.90;99.90;;;;;;10350964;28;20400;-62
2021/12/09 01:59:19;;;;;;;13.98;5.55;;;3.80;99.90;;;;;;10351809;28;20073;-62
2021/12/09 02:04:22;;;;;;;12.55;4.22;;;3.70;99.90;;;;;;10330829;28;20435;-62
2021/12/09 02:09:24;;;;;;;13.43;5.30;;;3.70;99.90;;;;;;10338406;28;20108;-62
2021/12/09 02:14:25;;;;;;;16.70;5.97;;;3.60;99.90;;;;;;10351784;28;20092;-62
2021/12/09 02:19:27;;;;;;;18.23;5.55;;;3.60;99.90;;;;;;10351257;28;20058;-62
2021/12/09 02:24:29;;;;;;;20.75;6.65;;;3.50;99.90;;;;;;10351446;28;20057;-62
2021/12/09 02:29:31;;;;;;;18.48;6.20;;;3.60;99.90;;;;;;10350845;28;20074;-62
2021/12/09 02:34:33;;;;;;;25.60;6.85;;;3.60;99.90;;;;;;10349335;28;20500;-62
2021/12/09 02:39:35;;;;;;;26.42;7.03;;;3.60;99.90;;;;;;10349658;28;20143;-62
2021/12/09 02:44:37;;;;;;;30.27;7.82;;;3.70;99.90;;;;;;10350547;28;20074;-62
2021/12/09 02:49:38;;;;;;;80.40;10.38;;;3.70;99.90;;;;;;10349523;28;20061;-64
2021/12/09 02:54:40;;;;;;;31.95;8.15;;;3.60;99.90;;;;;;10349382;28;20123;-64
2021/12/09 02:59:42;;;;;;;103.60;10.68;;;3.70;99.90;;;;;;10338576;28;20101;-64
2021/12/09 03:04:47;;;;;;;102.88;9.57;;;3.50;99.90;;;;;;10349384;28;20550;-64
2021/12/09 03:09:54;;;;;;;153.35;10.18;;;3.50;99.90;;;;;;10347717;28;20049;-64
2021/12/09 03:14:56;;;;;;;93.88;10.45;;;3.30;99.90;;;;;;10345316;28;20069;-64
2021/12/09 03:19:58;;;;;;;75.57;8.80;;;3.40;99.90;;;;;;10348439;28;20042;-64
2021/12/09 03:25:00;;;;;;;87.13;7.78;;;3.40;99.90;;;;;;10348250;28;20127;-64
2021/12/09 03:30:04;;;;;;;121.70;11.70;;;3.40;99.90;;;;;;10350180;28;20127;-64
2021/12/09 03:35:07;;;;;;;92.65;8.23;;;3.40;99.90;;;;;;10348424;28;20100;-64
2021/12/09 03:40:10;;;;;;;107.80;8.43;;;3.30;99.90;;;;;;10316004;28;20049;-64
2021/12/09 03:45:13;;;;;;;92.65;8.68;;;3.20;99.90;;;;;;10347959;28;20050;-64
2021/12/09 03:50:17;;;;;;;71.93;8.60;;;3.20;99.90;;;;;;10348730;28;20054;-64
2021/12/09 03:55:19;;;;;;;96.20;8.10;;;3.20;99.90;;;;;;10347072;28;20053;-64
2021/12/09 04:00:20;;;;;;;79.35;8.25;;;3.10;99.90;;;;;;10344519;28;20081;-64
2021/12/09 04:05:22;;;;;;;45.75;6.60;;;3.10;99.90;;;;;;10347317;28;20767;-64
2021/12/09 04:10:24;;;;;;;50.60;6.30;;;3.00;99.90;;;;;;10346730;28;20042;-64
2021/12/09 04:15:26;;;;;;;47.15;6.07;;;2.90;99.90;;;;;;10346849;28;20049;-64
2021/12/09 04:20:29;;;;;;;51.05;7.53;;;2.80;99.90;;;;;;10345601;28;20198;-64
2021/12/09 04:25:31;;;;;;;36.30;6.00;;;2.70;99.90;;;;;;10346226;28;20092;-64
2021/12/09 04:30:34;;;;;;;79.97;6.65;;;2.70;99.90;;;;;;10346006;28;20045;-64
2021/12/09 04:35:36;;;;;;;80.63;8.35;;;2.60;99.90;;;;;;10346942;28;20095;-64
2021/12/09 04:40:38;;;;;;;96.80;9.32;;;2.50;99.90;;;;;;10344796;28;20108;-64
2021/12/09 04:45:40;;;;;;;68.82;7.47;;;2.40;99.90;;;;;;10345958;28;20077;-61
2021/12/09 04:50:42;;;;;;;88.10;9.73;;;2.50;99.90;;;;;;10342822;28;20107;-61
2021/12/09 04:55:44;;;;;;;54.70;7.35;;;2.40;99.90;;;;;;10345750;28;20104;-61
2021/12/09 05:00:48;;;;;;;23.98;6.10;;;2.50;99.90;;;;;;10345390;28;20049;-61
2021/12/09 05:05:52;;;;;;;45.58;6.88;;;2.50;99.90;;;;;;10346036;28;20128;-61
2021/12/09 05:11:07;;;;;;;33.58;7.57;;;2.60;99.90;;;;;;10338398;28;20136;-61
2021/12/09 05:16:10;;;;;;;23.63;6.82;;;2.70;99.90;;;;;;10344136;28;20459;-61
2021/12/09 05:21:12;;;;;;;30.02;7.20;;;2.70;99.90;;;;;;10346103;28;20041;-61
2021/12/09 05:26:15;;;;;;;21.67;6.90;;;2.80;99.90;;;;;;10328441;28;20062;-61
2021/12/09 05:36:41;;;;;;;17.42;6.18;;;2.70;99.90;;;;;;10344328;28;20078;-61
2021/12/09 05:41:44;;;;;;;10.43;4.45;;;2.80;99.90;;;;;;10345016;28;20447;-63
2021/12/09 05:46:47;;;;;;;18.80;6.25;;;2.80;99.90;;;;;;10339454;28;20097;-63
2021/12/09 05:51:49;;;;;;;10.35;4.40;;;2.80;99.90;;;;;;10344398;28;20046;-63
2021/12/09 05:56:51;;;;;;;14.05;4.43;;;2.80;99.90;;;;;;10349139;28;20096;-63
2021/12/09 06:01:54;;;;;;;13.60;4.53;;;2.80;99.90;;;;;;10349923;28;20056;-63
2021/12/09 06:06:55;;;;;;;13.95;5.10;;;2.60;99.90;;;;;;10353848;28;20042;-63
2021/12/09 06:11:57;;;;;;;14.52;5.00;;;2.40;99.90;;;;;;10349368;28;20050;-64
2021/12/09 06:16:59;;;;;;;17.35;5.60;;;2.30;99.90;;;;;;10350728;28;20057;-64
2021/12/09 06:22:01;;;;;;;14.00;4.93;;;2.30;99.90;;;;;;10350879;28;20050;-64
2021/12/09 06:27:06;;;;;;;11.20;3.60;;;2.20;99.90;;;;;;10349789;28;20116;-64
2021/12/09 06:32:08;;;;;;;10.88;4.25;;;2.10;99.90;;;;;;10350025;28;21481;-64
2021/12/09 06:37:10;;;;;;;10.27;3.85;;;2.10;99.90;;;;;;10350262;28;20045;-63
2021/12/09 06:42:13;;;;;;;16.75;4.35;;;2.00;99.90;;;;;;10349177;28;20143;-63
2021/12/09 06:47:15;;;;;;;9.70;3.42;;;2.00;99.90;;;;;;10346955;28;20374;-63
2021/12/09 06:52:17;;;;;;;9.35;3.25;;;1.90;99.90;;;;;;10348438;28;20468;-64
2021/12/09 06:57:19;;;;;;;12.57;3.85;;;1.90;99.90;;;;;;10347490;28;20116;-64
2021/12/09 07:02:20;;;;;;;10.45;3.33;;;1.90;99.90;;;;;;10347584;28;20058;-63
2021/12/09 07:07:22;;;;;;;14.77;3.63;;;1.80;99.90;;;;;;10346705;28;20041;-63
2021/12/09 07:12:24;;;;;;;12.07;4.18;;;1.90;99.90;;;;;;10324526;28;20053;-63
2021/12/09 07:17:26;;;;;;;10.38;4.03;;;1.80;99.90;;;;;;10349384;28;20086;-63
2021/12/09 07:22:27;;;;;;;17.40;4.65;;;1.80;99.90;;;;;;10347142;28;20147;-63
2021/12/09 07:27:29;;;;;;;10.65;3.58;;;1.80;99.90;;;;;;10348350;28;20073;-63
2021/12/09 07:32:32;;;;;;;12.23;2.83;;;1.80;99.90;;;;;;10347306;28;20066;-63
2021/12/09 07:37:37;;;;;;;5.50;2.30;;;1.70;99.90;;;;;;10347008;28;20052;-63
2021/12/09 07:42:39;;;;;;;8.63;3.15;;;1.70;99.90;;;;;;10348329;28;20046;-63
2021/12/09 07:47:40;;;;;;;10.65;3.35;;;1.70;99.90;;;;;;10347183;28;20100;-63
2021/12/09 07:52:44;;;;;;;7.10;2.95;;;1.70;99.90;;;;;;10347957;28;20657;-63
2021/12/09 07:57:46;;;;;;;8.68;3.35;;;1.80;99.90;;;;;;10345488;28;20062;-63
2021/12/09 08:02:49;;;;;;;10.25;3.05;;;1.80;99.90;;;;;;10345361;28;20053;-63
2021/12/09 08:07:51;;;;;;;10.75;3.47;;;1.90;99.90;;;;;;10348114;28;20123;-63
2021/12/09 08:12:53;;;;;;;9.05;3.70;;;1.90;99.90;;;;;;10346759;28;20104;-63
2021/12/09 08:18:25;;;;;;;9.07;3.03;;;1.90;99.90;;;;;;10304706;28;20042;-62
2021/12/09 08:23:26;;;;;;;10.25;3.35;;;2.00;99.90;;;;;;10304578;28;20034;-62
2021/12/09 08:28:28;;;;;;;11.60;3.00;;;2.10;99.90;;;;;;10304858;28;20046;-62
2021/12/09 08:33:29;;;;;;;13.18;2.97;;;2.10;99.90;;;;;;10303003;28;20452;-62
2021/12/09 08:38:31;;;;;;;20.50;3.70;;;2.20;99.90;;;;;;10304852;28;20084;-63
2021/12/09 08:43:33;;;;;;;11.30;2.58;;;2.30;99.90;;;;;;10306472;28;20124;-62
2021/12/09 08:48:39;;;;;;;13.25;3.03;;;2.30;99.90;;;;;;10307566;28;20082;-62
2021/12/09 08:53:41;;;;;;;15.63;3.45;;;2.40;99.90;;;;;;10305918;28;20116;-62
2021/12/09 09:04:59;;;;;;;11.45;3.50;;;2.40;99.90;;;;;;10301285;28;20049;-63
2021/12/09 09:10:04;;;;;;;8.68;3.90;;;2.50;99.90;;;;;;10306987;28;20050;-63
2021/12/09 09:15:09;;;;;;;8.50;3.40;;;2.50;99.90;;;;;;10307152;28;20512;-63
2021/12/09 09:20:14;;;;;;;7.60;3.83;;;2.50;99.90;;;;;;10347193;28;20127;-63
2021/12/09 09:25:20;;;;;;;8.80;2.33;;;2.60;99.90;;;;;;10344687;28;20045;-63
2021/12/09 09:30:23;;;;;;;8.02;2.60;;;2.70;99.90;;;;;;10348286;28;20042;-63
2021/12/09 09:35:24;;;;;;;5.85;2.05;;;2.70;99.90;;;;;;10352981;28;20046;-63
2021/12/09 09:40:38;;;;;;;5.00;2.17;;;2.80;99.90;;;;;;10351401;28;20058;-63
2021/12/09 09:45:40;;;;;;;7.15;2.60;;;2.80;99.90;;;;;;10354440;28;20443;-63
2021/12/09 09:50:42;;;;;;;4.90;1.98;;;2.90;99.90;;;;;;10353918;28;20112;-63
2021/12/09 09:55:47;;;;;;;5.72;1.90;;;2.90;99.90;;;;;;10351935;28;20057;-63
2021/12/09 10:00:49;;;;;;;4.78;2.25;;;3.00;99.90;;;;;;10352045;28;20112;-63
2021/12/09 10:05:51;;;;;;;3.85;1.95;;;3.10;99.90;;;;;;10351337;28;20053;-63
2021/12/09 10:10:53;;;;;;;8.65;2.92;;;3.10;99.90;;;;;;10352144;28;20042;-63
2021/12/09 10:15:54;;;;;;;5.97;2.35;;;3.20;99.90;;;;;;10352614;28;20108;-63
2021/12/09 10:20:56;;;;;;;6.72;2.33;;;3.20;99.90;;;;;;10348723;28;20061;-63
2021/12/09 10:26:19;;;;;;;4.18;1.98;;;3.20;99.90;;;;;;10333650;28;20555;-62
2021/12/09 10:31:28;;;;;;;4.47;2.05;;;3.30;99.90;;;;;;10351664;28;20120;-62
2021/12/09 10:37:04;;;;;;;4.47;1.88;;;3.30;99.90;;;;;;10350313;28;20456;-62
2021/12/09 10:42:17;;;;;;;7.03;2.55;;;3.30;99.90;;;;;;10318360;28;20131;-62
2021/12/09 10:47:35;;;;;;;3.50;2.15;;;3.40;99.90;;;;;;10350584;28;20108;-63
2021/12/09 10:52:43;;;;;;;4.95;1.58;;;3.50;99.90;;;;;;10350750;28;20216;-62
2021/12/09 10:57:45;;;;;;;;;;;3.50;99.90;;;;;;10349862;28;20073;-62
2021/12/09 11:02:59;;;;;;;5.68;1.67;;;3.60;99.90;;;;;;10349231;28;20007;-62
2021/12/09 11:08:16;;;;;;;4.03;1.70;;;3.80;99.90;;;;;;10345068;28;20116;-62
2021/12/09 11:13:21;;;;;;;6.13;1.60;;;3.90;99.90;;;;;;10347673;28;20049;-62
2021/12/09 11:18:35;;;;;;;14.15;2.88;;;4.00;99.90;;;;;;10347748;28;20112;-62
2021/12/09 11:23:57;;;;;;;3.75;1.52;;;4.00;99.90;;;;;;10348755;28;20082;-62
2021/12/09 11:29:07;;;;;;;5.20;1.50;;;4.00;99.90;;;;;;10347827;28;20071;-62
2021/12/09 11:34:14;;;;;;;4.50;1.40;;;3.90;99.90;;;;;;10348238;28;20445;-62
2021/12/09 11:39:26;;;;;;;10.98;2.13;;;3.80;99.90;;;;;;10348719;28;20112;-62
2021/12/09 11:44:28;;;;;;;4.90;1.70;;;3.90;99.90;;;;;;10346230;28;20046;-62
2021/12/09 11:49:30;;;;;;;2.75;1.42;;;3.90;99.90;;;;;;10348751;28;20452;-62
2021/12/09 11:54:32;;;;;;;6.65;0.88;;;3.90;99.90;;;;;;10344954;28;20643;-62
2021/12/09 12:06:43;;;;;;;9.05;1.75;;;4.00;99.90;;;;;;10345743;28;20054;-62
2021/12/09 12:20:42;;;;;;;3.30;1.10;;;4.10;99.90;;;;;;10338783;28;20073;-62
2021/12/09 12:36:29;;;;;;;6.15;2.47;;;4.20;99.90;;;;;;10347291;28;20432;-62
2021/12/09 12:41:32;;;;;;;10.18;2.17;;;4.20;99.90;;;;;;10342845;28;20096;-62
2021/12/09 12:46:49;;;;;;;10.05;2.03;;;4.20;99.90;;;;;;10326225;28;20053;-62
2021/12/09 12:52:06;;;;;;;7.37;2.07;;;4.30;99.90;;;;;;10346316;28;20144;-62
2021/12/09 12:57:25;;;;;;;9.27;2.13;;;4.30;99.90;;;;;;10340727;28;20104;-62
2021/12/09 13:02:58;;;;;;;4.22;1.42;;;4.30;99.90;;;;;;10343702;28;20456;-62
2021/12/09 13:13:29;;;;;;;4.20;1.08;;;4.30;99.90;;;;;;10340786;28;20139;-64
2021/12/09 13:19:01;;;;;;;5.15;0.82;;;4.40;99.90;;;;;;10343719;28;20743;-64
2021/12/09 13:24:28;;;;;;;4.30;0.75;;;4.50;99.90;;;;;;10342884;28;20125;-64
2021/12/09 13:29:38;;;;;;;4.85;0.80;;;4.60;99.90;;;;;;10340144;28;20100;-64
2021/12/09 13:34:51;;;;;;;5.05;0.90;;;4.70;99.90;;;;;;10344392;28;20116;-64
2021/12/09 13:50:52;;;;;;;4.15;1.65;;;4.60;99.90;;;;;;10343882;28;20085;-62
2021/12/09 13:55:53;;;;;;;6.97;1.23;;;4.60;99.90;;;;;;10344457;28;20038;-62
2021/12/09 14:00:55;;;;;;;6.57;0.90;;;4.60;99.90;;;;;;10340720;28;20104;-62
2021/12/09 14:06:07;;;;;;;3.53;1.15;;;4.60;99.90;;;;;;10342190;28;20069;-62
2021/12/09 14:11:34;;;;;;;8.68;1.25;;;4.50;99.90;;;;;;10343464;28;20049;-62
2021/12/09 14:16:53;;;;;;;5.83;0.90;;;4.50;99.90;;;;;;10347322;28;20054;-63
2021/12/09 14:21:56;;;;;;;3.85;1.20;;;4.50;99.90;;;;;;10351871;28;20096;-62
2021/12/09 14:27:03;;;;;;;6.32;0.90;;;4.50;99.90;;;;;;10351862;28;20081;-62
2021/12/09 14:32:08;;;;;;;7.77;1.17;;;4.50;99.90;;;;;;10348176;28;20156;-62
2021/12/09 14:37:12;;;;;;;4.47;0.98;;;4.50;99.90;;;;;;10351602;28;20104;-62
2021/12/09 14:42:17;;;;;;;7.07;1.35;;;4.40;99.90;;;;;;10349296;28;20432;-63
2021/12/09 14:47:19;;;;;;;8.48;1.45;;;4.40;99.90;;;;;;10349209;28;20500;-62
2021/12/09 14:52:35;;;;;;;5.82;1.17;;;4.40;99.90;;;;;;10344902;28;20074;-62
2021/12/09 14:57:59;;;;;;;5.55;1.27;;;4.30;99.90;;;;;;10346411;28;20069;-62
2021/12/09 15:03:02;;;;;;;7.38;1.60;;;4.40;99.90;;;;;;10326937;28;20479;-63
2021/12/09 15:08:06;;;;;;;8.68;1.55;;;4.40;99.90;;;;;;10333112;28;20086;-63
2021/12/09 15:13:10;;;;;;;11.50;1.95;;;4.30;99.90;;;;;;10343693;28;20077;-62
2021/12/09 15:18:12;;;;;;;7.28;2.03;;;4.40;99.90;;;;;;10348162;28;20373;-62
2021/12/09 15:23:34;;;;;;;11.32;3.17;;;4.30;99.90;;;;;;10331854;28;20140;-62
2021/12/09 15:28:36;;;;;;;8.75;2.53;;;4.30;99.90;;;;;;10330206;28;20131;-62
2021/12/09 15:33:49;;;;;;;8.35;1.90;;;4.30;99.90;;;;;;10348486;28;20050;-62
2021/12/09 15:39:13;;;;;;;9.70;2.35;;;4.30;99.90;;;;;;10348170;28;20531;-62
2021/12/09 15:44:21;;;;;;;8.90;1.75;;;4.20;99.90;;;;;;10346131;28;20168;-62
2021/12/09 15:49:27;;;;;;;6.40;1.88;;;4.00;99.90;;;;;;10326014;28;20053;-63
2021/12/09 15:54:34;;;;;;;10.93;2.78;;;4.00;99.90;;;;;;10346292;28;20108;-64
2021/12/09 15:59:38;;;;;;;11.00;2.65;;;3.90;99.90;;;;;;10345791;28;20042;-64
2021/12/09 16:04:40;;;;;;;12.50;3.05;;;4.00;99.90;;;;;;10347506;28;20081;-64
2021/12/09 16:09:42;;;;;;;7.40;2.00;;;4.00;99.90;;;;;;10347077;28;20050;-64
2021/12/09 16:14:51;;;;;;;12.07;3.13;;;3.90;99.90;;;;;;10341133;28;20073;-64
2021/12/09 16:19:56;;;;;;;8.48;3.22;;;3.90;99.90;;;;;;10343302;28;20080;-64
2021/12/09 16:25:18;;;;;;;19.33;3.58;;;3.90;99.90;;;;;;10344726;28;20099;-64
2021/12/09 16:30:26;;;;;;;10.35;3.88;;;3.90;99.90;;;;;;10342613;28;20088;-64
2021/12/09 16:35:31;;;;;;;14.95;4.53;;;3.90;99.90;;;;;;10342804;28;20054;-64
2021/12/09 16:40:40;;;;;;;15.27;4.20;;;3.90;99.90;;;;;;10343232;28;20049;-64
2021/12/09 16:45:41;;;;;;;9.00;3.45;;;3.90;99.90;;;;;;10345033;28;20145;-65
2021/12/09 16:50:45;;;;;;;11.00;3.38;;;3.90;99.90;;;;;;10343638;28;20077;-65
2021/12/09 16:56:35;;;;;;;13.50;3.35;;;3.80;99.90;;;;;;10344726;28;20561;-65
2021/12/09 17:01:17;;;;;;;13.65;2.88;;;3.80;99.90;;;;;;10321952;28;20719;-66
2021/12/09 17:06:19;;;;;;;6.53;2.72;;;3.80;99.90;;;;;;10325506;28;20061;-65
2021/12/09 17:11:21;;;;;;;16.98;2.70;;;3.80;99.90;;;;;;10345465;28;20546;-65
2021/12/09 17:16:23;;;;;;;6.45;2.17;;;3.80;99.90;;;;;;10345489;28;20053;-65
2021/12/09 17:21:25;;;;;;;6.68;2.20;;;3.70;99.90;;;;;;10344170;28;20100;-65
2021/12/09 17:26:28;;;;;;;7.38;2.25;;;3.80;99.90;;;;;;10346129;28;20049;-65
2021/12/09 17:31:40;;;;;;;8.45;2.00;;;3.80;99.90;;;;;;10319885;28;20046;-65
2021/12/09 17:36:44;;;;;;;9.73;1.80;;;3.90;99.90;;;;;;10342962;28;20050;-65
2021/12/09 17:41:51;;;;;;;6.28;1.92;;;3.80;99.90;;;;;;10344546;28;20073;-65
2021/12/09 17:46:58;;;;;;;3.88;1.65;;;3.80;99.90;;;;;;10345388;28;20054;-65
2021/12/09 17:52:12;;;;;;;9.43;2.35;;;3.80;99.90;;;;;;10347920;28;20396;-65
2021/12/09 17:57:15;;;;;;;6.47;1.85;;;3.70;99.90;;;;;;10353093;28;20050;-65
2021/12/09 18:02:16;;;;;;;6.43;2.45;;;3.70;99.90;;;;;;10349793;28;20049;-66
2021/12/09 18:07:20;;;;;;;8.05;2.78;;;3.70;99.90;;;;;;10351492;28;20053;-65
2021/12/09 18:12:24;;;;;;;8.43;2.83;;;3.70;99.90;;;;;;10352171;28;20041;-65
2021/12/09 18:17:34;;;;;;;12.07;2.40;;;3.70;99.90;;;;;;10351403;28;20042;-65
2021/12/09 18:22:36;;;;;;;8.70;2.95;;;3.70;99.90;;;;;;10349283;28;20065;-65
2021/12/09 18:27:40;;;;;;;11.82;3.53;;;3.70;99.90;;;;;;10348209;28;20045;-66
2021/12/09 18:32:42;;;;;;;10.27;2.40;;;3.80;99.90;;;;;;10326932;28;20057;-65
2021/12/09 18:37:50;;;;;;;10.00;2.90;;;3.80;99.90;;;;;;10350473;28;20073;-65
2021/12/09 18:42:53;;;;;;;13.20;3.03;;;3.90;99.90;;;;;;10350485;28;20069;-64
2021/12/09 18:47:56;;;;;;;7.35;2.00;;;3.80;99.90;;;;;;10350482;28;20050;-64
2021/12/09 18:53:00;;;;;;;9.20;2.20;;;3.90;99.90;;;;;;10347716;28;20543;-63
2021/12/09 18:58:07;;;;;;;8.65;2.22;;;3.90;99.90;;;;;;10347513;28;20132;-65
2021/12/09 19:03:10;;;;;;;9.95;3.00;;;3.90;99.90;;;;;;10347780;28;20062;-63
2021/12/09 19:08:14;;;;;;;7.72;2.10;;;3.90;99.90;;;;;;10347798;28;20045;-65
2021/12/09 19:13:18;;;;;;;11.73;2.28;;;3.90;99.90;;;;;;10348671;28;20057;-64
2021/12/09 19:18:26;;;;;;;6.40;1.52;;;4.00;99.90;;;;;;10344277;28;20046;-66
2021/12/09 19:23:29;;;;;;;12.57;2.13;;;4.00;99.90;;;;;;10340249;28;20053;-66
2021/12/09 19:28:32;;;;;;;8.45;1.83;;;4.10;99.90;;;;;;10321172;28;20516;-66
2021/12/09 19:33:38;;;;;;;3.83;1.25;;;4.00;99.90;;;;;;10341302;28;20050;-65
2021/12/09 19:38:42;;;;;;;4.43;1.65;;;4.00;99.90;;;;;;10330374;28;20046;-65
2021/12/09 19:43:44;;;;;;;9.95;1.73;;;4.00;99.90;;;;;;10342247;28;20143;-66
2021/12/09 19:48:49;;;;;;;7.38;1.35;;;3.90;99.90;;;;;;10341433;28;20081;-65
2021/12/09 19:53:51;;;;;;;9.35;1.83;;;3.90;99.90;;;;;;10341575;28;20056;-65
2021/12/09 19:58:55;;;;;;;10.40;2.33;;;3.90;99.90;;;;;;10331999;28;20077;-66
2021/12/09 20:03:58;;;;;;;5.70;1.52;;;3.90;99.90;;;;;;10344412;28;20088;-65
2021/12/09 20:09:00;;;;;;;8.00;2.30;;;3.90;99.90;;;;;;10341171;28;20136;-63
2021/12/09 20:14:01;;;;;;;6.43;2.13;;;3.90;99.90;;;;;;10343291;28;20042;-62
2021/12/09 20:19:03;;;;;;;5.97;1.58;;;3.90;99.90;;;;;;10347772;28;20054;-62
2021/12/09 20:24:24;;;;;;;4.15;1.30;;;3.90;99.90;;;;;;10346109;28;20048;-64
2021/12/09 20:29:29;;;;;;;7.70;2.13;;;3.80;99.90;;;;;;10345463;28;20103;-64
2021/12/09 20:34:30;;;;;;;6.88;2.00;;;3.70;99.90;;;;;;10344259;28;20054;-65
2021/12/09 20:39:36;;;;;;;3.58;1.48;;;3.70;99.90;;;;;;10344672;28;21106;-65
2021/12/09 20:44:38;;;;;;;6.03;2.08;;;3.70;99.90;;;;;;10328626;28;20461;-66
2021/12/09 20:49:40;;;;;;;5.07;2.20;;;3.70;99.90;;;;;;10343683;28;20074;-64
2021/12/09 20:54:42;;;;;;;6.18;2.10;;;3.70;99.90;;;;;;10343345;28;20050;-66
2021/12/09 20:59:44;;;;;;;9.10;2.88;;;3.70;99.90;;;;;;10345111;28;20064;-66
2021/12/09 21:04:46;;;;;;;8.75;2.80;;;3.70;99.90;;;;;;10323993;28;20127;-65
2021/12/09 21:09:58;;;;;;;4.45;1.75;;;3.70;99.90;;;;;;10324492;28;20124;-65
2021/12/09 21:15:03;;;;;;;2.63;1.45;;;3.70;99.90;;;;;;10345153;28;20050;-66
2021/12/09 21:20:08;;;;;;;3.83;1.33;;;3.70;99.90;;;;;;10343684;28;20734;-65
2021/12/09 21:25:13;;;;;;;2.00;0.93;;;3.60;99.90;;;;;;10345682;28;20120;-67
2021/12/09 21:30:15;;;;;;;1.75;0.80;;;3.50;99.90;;;;;;10352976;28;20041;-66
2021/12/09 21:35:18;;;;;;;2.85;0.90;;;3.40;99.90;;;;;;10353353;28;20116;-65
2021/12/09 21:40:26;;;;;;;4.88;1.73;;;3.30;99.90;;;;;;10351556;28;20045;-65
2021/12/09 21:45:30;;;;;;;3.38;1.02;;;3.30;99.90;;;;;;10351518;28;20104;-65
2021/12/09 21:50:31;;;;;;;3.30;1.40;;;3.20;99.90;;;;;;10352968;28;20041;-65
2021/12/09 21:55:33;;;;;;;7.45;1.85;;;3.20;99.90;;;;;;10333962;28;20065;-65
2021/12/09 22:00:37;;;;;;;3.92;1.80;;;3.30;99.90;;;;;;10352693;28;20385;-65
2021/12/09 22:05:40;;;;;;;9.70;2.15;;;3.20;99.90;;;;;;10350041;28;21640;-65
2021/12/09 22:10:41;;;;;;;5.00;2.20;;;3.20;99.90;;;;;;10352715;28;20119;-65
2021/12/09 22:15:43;;;;;;;4.63;2.40;;;3.20;99.90;;;;;;10352690;28;20120;-65
2021/12/09 22:20:45;;;;;;;6.57;2.50;;;3.30;99.90;;;;;;10350896;28;20654;-65
2021/12/09 22:25:47;;;;;;;7.03;2.25;;;3.20;99.90;;;;;;10352666;28;21393;-65
2021/12/09 22:30:48;;;;;;;5.68;2.08;;;3.30;99.90;;;;;;10350550;28;20582;-66
2021/12/09 22:35:50;;;;;;;5.30;2.22;;;3.40;99.90;;;;;;10346427;28;20108;-65
2021/12/09 22:40:52;;;;;;;3.70;1.98;;;3.40;99.90;;;;;;10349855;28;20077;-66
2021/12/09 22:45:55;;;;;;;6.80;2.10;;;3.40;99.90;;;;;;10349455;28;20065;-66
2021/12/09 22:51:04;;;;;;;4.57;1.90;;;3.40;99.90;;;;;;10351306;28;20112;-65
2021/12/09 22:56:07;;;;;;;4.30;2.08;;;3.50;99.90;;;;;;10349199;28;20628;-65
2021/12/09 23:01:13;;;;;;;5.43;2.42;;;3.50;99.90;;;;;;10346444;28;20699;-64
2021/12/09 23:06:15;;;;;;;3.55;2.03;;;3.60;99.90;;;;;;10350373;28;20141;-64
2021/12/09 23:11:22;;;;;;;5.75;2.00;;;3.60;99.90;;;;;;10347218;28;20634;-64
2021/12/09 23:16:28;;;;;;;4.13;1.83;;;3.60;99.90;;;;;;10348898;28;20488;-64
2021/12/09 23:21:30;;;;;;;6.40;1.65;;;3.70;99.90;;;;;;10348202;28;20057;-64
2021/12/09 23:26:32;;;;;;;3.90;1.55;;;3.70;99.90;;;;;;10346264;28;20046;-64
2021/12/09 23:31:35;;;;;;;6.22;1.98;;;3.70;99.90;;;;;;10347322;28;20543;-64
2021/12/09 23:36:37;;;;;;;2.67;1.35;;;3.70;99.90;;;;;;10348553;28;20058;-64
2021/12/09 23:41:41;;;;;;;11.00;3.45;;;3.70;99.90;;;;;;10347058;28;20073;-64
2021/12/09 23:46:44;;;;;;;7.32;2.00;;;3.70;99.90;;;;;;10325274;28;20507;-64
2021/12/09 23:51:55;;;;;;;3.67;1.45;;;3.70;99.90;;;;;;10346540;28;20049;-64
2021/12/09 23:56:57;;;;;;;2.58;1.20;;;3.70;99.90;;;;;;10346906;28;20073;-64
